sensor_id;sensor_type;location;lat;lon;timestamp;temperature;humidity
56123;DHT22;42426;46.104;19.656;2024-03-02T00:00:14;307.20;2304.00
56123;DHT22;42426;46.104;19.656;2024-03-02T00:02:44;307.30;2304.00
56123;DHT22;42426;46.104;19.656;2024-03-02T00:05:14;307.30;2304.00
56123;DHT22;42426;46.104;19.656;2024-03-02T00:07:45;307.30;2304.00
56123;DHT22;42426;46.104;19.656;2024-03-02T00:10:16;307.30;2304.00
56123;DHT22;42426;46.104;19.656;2024-03-02T00:12:47;307.20;2304.00
56123;DHT22;42426;46.104;19.656;2024-03-02T00:17:59;307.20;2304.00
56123;DHT22;42426;46.104;19.656;2024-03-02T00:20:26;307.20;2304.00
56123;DHT22;42426;46.104;19.656;2024-03-02T00:23:05;307.20;2304.00
56123;DHT22;42426;46.104;19.656;2024-03-02T00:25:50;307.20;2304.00
56123;DHT22;42426;46.104;19.656;2024-03-02T00:28:35;307.20;2304.00
56123;DHT22;42426;46.104;19.656;2024-03-02T00:31:11;307.20;2304.00
56123;DHT22;42426;46.104;19.656;2024-03-02T00:33:45;307.20;2304.00
56123;DHT22;42426;46.104;19.656;2024-03-02T00:36:14;307.20;2304.00
56123;DHT22;42426;46.104;19.656;2024-03-02T00:38:48;307.20;2304.00
56123;DHT22;42426;46.104;19.656;2024-03-02T00:41:31;307.20;2304.00
56123;DHT22;42426;46.104;19.656;2024-03-02T00:46:24;282.50;2278.40
56123;DHT22;42426;46.104;19.656;2024-03-02T00:48:55;307.20;2304.00
56123;DHT22;42426;46.104;19.656;2024-03-02T00:51:22;307.20;2304.00
56123;DHT22;42426;46.104;19.656;2024-03-02T00:53:49;282.50;2278.40
56123;DHT22;42426;46.104;19.656;2024-03-02T00:56:15;282.50;2278.40
56123;DHT22;42426;46.104;19.656;2024-03-02T00:58:41;282.50;2278.40
56123;DHT22;42426;46.104;19.656;2024-03-02T01:01:07;282.50;2278.40
56123;DHT22;42426;46.104;19.656;2024-03-02T01:03:33;282.50;2278.40
56123;DHT22;42426;46.104;19.656;2024-03-02T01:05:59;282.50;2278.40
56123;DHT22;42426;46.104;19.656;2024-03-02T01:08:25;282.50;2278.40
56123;DHT22;42426;46.104;19.656;2024-03-02T01:10:51;282.50;2278.40
56123;DHT22;42426;46.104;19.656;2024-03-02T01:13:17;282.50;2278.40
56123;DHT22;42426;46.104;19.656;2024-03-02T01:15:43;307.20;2304.00
56123;DHT22;42426;46.104;19.656;2024-03-02T01:18:09;307.20;2304.00
56123;DHT22;42426;46.104;19.656;2024-03-02T01:20:35;282.50;2278.40
56123;DHT22;42426;46.104;19.656;2024-03-02T01:23:01;282.50;2278.40
56123;DHT22;42426;46.104;19.656;2024-03-02T01:25:26;282.50;2278.40
56123;DHT22;42426;46.104;19.656;2024-03-02T01:27:52;282.50;2278.40
56123;DHT22;42426;46.104;19.656;2024-03-02T01:30:18;282.50;2278.40
56123;DHT22;42426;46.104;19.656;2024-03-02T01:32:44;282.50;2278.40
56123;DHT22;42426;46.104;19.656;2024-03-02T01:35:10;282.50;2278.40
56123;DHT22;42426;46.104;19.656;2024-03-02T01:37:35;282.40;2278.40
56123;DHT22;42426;46.104;19.656;2024-03-02T01:40:01;282.40;2278.40
56123;DHT22;42426;46.104;19.656;2024-03-02T01:42:28;282.40;2278.40
56123;DHT22;42426;46.104;19.656;2024-03-02T01:44:54;282.40;2278.40
56123;DHT22;42426;46.104;19.656;2024-03-02T01:47:20;282.40;2278.40
56123;DHT22;42426;46.104;19.656;2024-03-02T01:49:46;282.40;2278.40
56123;DHT22;42426;46.104;19.656;2024-03-02T01:52:11;282.30;2278.40
56123;DHT22;42426;46.104;19.656;2024-03-02T01:54:37;282.20;2278.40
56123;DHT22;42426;46.104;19.656;2024-03-02T01:57:03;282.30;2278.40
56123;DHT22;42426;46.104;19.656;2024-03-02T01:59:29;282.30;2278.40
56123;DHT22;42426;46.104;19.656;2024-03-02T02:01:56;282.30;2278.40
56123;DHT22;42426;46.104;19.656;2024-03-02T02:04:22;282.40;2278.40
56123;DHT22;42426;46.104;19.656;2024-03-02T02:06:52;282.30;2278.40
56123;DHT22;42426;46.104;19.656;2024-03-02T02:09:18;282.30;2278.40
56123;DHT22;42426;46.104;19.656;2024-03-02T02:11:44;282.20;2278.40
56123;DHT22;42426;46.104;19.656;2024-03-02T02:14:10;282.20;2278.40
56123;DHT22;42426;46.104;19.656;2024-03-02T02:16:36;282.20;2278.40
56123;DHT22;42426;46.104;19.656;2024-03-02T02:19:02;282.20;2278.40
56123;DHT22;42426;46.104;19.656;2024-03-02T02:21:28;282.20;2278.40
56123;DHT22;42426;46.104;19.656;2024-03-02T02:23:54;282.20;2278.40
56123;DHT22;42426;46.104;19.656;2024-03-02T02:26:20;282.20;2278.40
56123;DHT22;42426;46.104;19.656;2024-03-02T02:28:45;282.20;2278.40
56123;DHT22;42426;46.104;19.656;2024-03-02T02:31:14;282.20;2278.40
56123;DHT22;42426;46.104;19.656;2024-03-02T02:33:41;282.10;2278.40
56123;DHT22;42426;46.104;19.656;2024-03-02T02:36:07;282.10;2278.40
56123;DHT22;42426;46.104;19.656;2024-03-02T02:38:39;282.10;2278.40
56123;DHT22;42426;46.104;19.656;2024-03-02T02:41:06;282.10;2278.40
56123;DHT22;42426;46.104;19.656;2024-03-02T02:43:32;282.10;2278.40
56123;DHT22;42426;46.104;19.656;2024-03-02T02:45:57;282.10;2278.40
56123;DHT22;42426;46.104;19.656;2024-03-02T02:48:23;282.10;2278.40
56123;DHT22;42426;46.104;19.656;2024-03-02T02:50:49;282.10;2278.40
56123;DHT22;42426;46.104;19.656;2024-03-02T02:53:15;282.00;2278.40
56123;DHT22;42426;46.104;19.656;2024-03-02T02:55:40;282.10;2278.40
56123;DHT22;42426;46.104;19.656;2024-03-02T02:58:06;282.00;2278.40
56123;DHT22;42426;46.104;19.656;2024-03-02T03:00:32;282.00;2278.40
56123;DHT22;42426;46.104;19.656;2024-03-02T03:02:58;282.00;2278.40
56123;DHT22;42426;46.104;19.656;2024-03-02T03:05:24;282.00;2278.40
56123;DHT22;42426;46.104;19.656;2024-03-02T03:07:49;282.00;2278.40
56123;DHT22;42426;46.104;19.656;2024-03-02T03:10:17;282.00;2278.40
56123;DHT22;42426;46.104;19.656;2024-03-02T03:12:43;282.00;2278.40
56123;DHT22;42426;46.104;19.656;2024-03-02T03:15:09;282.00;2278.40
56123;DHT22;42426;46.104;19.656;2024-03-02T03:17:37;281.90;2278.40
56123;DHT22;42426;46.104;19.656;2024-03-02T03:20:03;282.00;2278.40
56123;DHT22;42426;46.104;19.656;2024-03-02T03:22:30;281.90;2278.40
56123;DHT22;42426;46.104;19.656;2024-03-02T03:24:57;281.90;2278.40
56123;DHT22;42426;46.104;19.656;2024-03-02T03:27:22;281.90;2278.40
56123;DHT22;42426;46.104;19.656;2024-03-02T03:29:48;282.00;2278.40
56123;DHT22;42426;46.104;19.656;2024-03-02T03:32:14;281.90;2278.40
56123;DHT22;42426;46.104;19.656;2024-03-02T03:34:40;282.00;2278.40
56123;DHT22;42426;46.104;19.656;2024-03-02T03:37:05;281.90;2278.40
56123;DHT22;42426;46.104;19.656;2024-03-02T03:39:31;281.90;2278.40
56123;DHT22;42426;46.104;19.656;2024-03-02T03:41:59;281.90;2278.40
56123;DHT22;42426;46.104;19.656;2024-03-02T03:44:25;281.90;2278.40
56123;DHT22;42426;46.104;19.656;2024-03-02T03:46:51;281.90;2278.40
56123;DHT22;42426;46.104;19.656;2024-03-02T03:49:17;281.90;2278.40
56123;DHT22;42426;46.104;19.656;2024-03-02T03:51:43;281.90;2278.40
56123;DHT22;42426;46.104;19.656;2024-03-02T03:54:08;281.90;2278.40
56123;DHT22;42426;46.104;19.656;2024-03-02T03:56:36;281.90;2278.40
56123;DHT22;42426;46.104;19.656;2024-03-02T03:59:03;281.90;2278.40
56123;DHT22;42426;46.104;19.656;2024-03-02T04:01:30;281.90;2278.40
56123;DHT22;42426;46.104;19.656;2024-03-02T04:03:57;281.90;2278.40
56123;DHT22;42426;46.104;19.656;2024-03-02T04:06:23;281.90;2278.40
56123;DHT22;42426;46.104;19.656;2024-03-02T04:08:49;281.90;2278.40
56123;DHT22;42426;46.104;19.656;2024-03-02T04:11:15;281.90;2278.40
56123;DHT22;42426;46.104;19.656;2024-03-02T04:13:40;281.90;2278.40
56123;DHT22;42426;46.104;19.656;2024-03-02T04:16:06;281.90;2278.40
56123;DHT22;42426;46.104;19.656;2024-03-02T04:18:33;281.90;2278.40
56123;DHT22;42426;46.104;19.656;2024-03-02T04:20:59;281.90;2278.40
56123;DHT22;42426;46.104;19.656;2024-03-02T04:23:26;281.90;2278.40
56123;DHT22;42426;46.104;19.656;2024-03-02T04:25:52;281.90;2278.40
56123;DHT22;42426;46.104;19.656;2024-03-02T04:28:18;281.90;2278.40
56123;DHT22;42426;46.104;19.656;2024-03-02T04:30:44;281.90;2278.40
56123;DHT22;42426;46.104;19.656;2024-03-02T04:33:09;281.90;2278.40
56123;DHT22;42426;46.104;19.656;2024-03-02T04:35:38;281.90;2278.40
56123;DHT22;42426;46.104;19.656;2024-03-02T04:38:04;281.80;2278.40
56123;DHT22;42426;46.104;19.656;2024-03-02T04:40:30;281.80;2278.40
56123;DHT22;42426;46.104;19.656;2024-03-02T04:42:55;281.80;2278.40
56123;DHT22;42426;46.104;19.656;2024-03-02T04:45:23;281.80;2278.40
56123;DHT22;42426;46.104;19.656;2024-03-02T04:47:49;281.80;2278.40
56123;DHT22;42426;46.104;19.656;2024-03-02T04:50:14;281.80;2278.40
56123;DHT22;42426;46.104;19.656;2024-03-02T04:52:40;281.80;2278.40
56123;DHT22;42426;46.104;19.656;2024-03-02T04:55:06;281.70;2278.40
56123;DHT22;42426;46.104;19.656;2024-03-02T04:57:50;281.80;2278.40
56123;DHT22;42426;46.104;19.656;2024-03-02T05:00:16;281.80;2278.40
56123;DHT22;42426;46.104;19.656;2024-03-02T05:02:43;281.80;2278.40
56123;DHT22;42426;46.104;19.656;2024-03-02T05:05:09;281.80;2278.40
56123;DHT22;42426;46.104;19.656;2024-03-02T05:07:35;281.80;2278.40
56123;DHT22;42426;46.104;19.656;2024-03-02T05:10:00;281.80;2278.40
56123;DHT22;42426;46.104;19.656;2024-03-02T05:12:26;281.70;2278.40
56123;DHT22;42426;46.104;19.656;2024-03-02T05:15:14;281.70;2278.40
56123;DHT22;42426;46.104;19.656;2024-03-02T05:17:41;281.70;2278.40
56123;DHT22;42426;46.104;19.656;2024-03-02T05:20:10;281.70;2278.40
56123;DHT22;42426;46.104;19.656;2024-03-02T05:22:36;281.70;2278.40
56123;DHT22;42426;46.104;19.656;2024-03-02T05:25:03;281.70;2278.40
56123;DHT22;42426;46.104;19.656;2024-03-02T05:27:29;281.60;2278.40
56123;DHT22;42426;46.104;19.656;2024-03-02T05:29:54;281.60;2278.40
56123;DHT22;42426;46.104;19.656;2024-03-02T05:32:20;281.60;2278.40
56123;DHT22;42426;46.104;19.656;2024-03-02T05:34:46;281.60;2278.40
56123;DHT22;42426;46.104;19.656;2024-03-02T05:37:12;281.60;2278.40
56123;DHT22;42426;46.104;19.656;2024-03-02T05:39:37;281.60;2278.40
56123;DHT22;42426;46.104;19.656;2024-03-02T05:42:03;281.60;2278.40
56123;DHT22;42426;46.104;19.656;2024-03-02T05:44:29;281.60;2278.40
56123;DHT22;42426;46.104;19.656;2024-03-02T05:46:58;256.90;2252.80
56123;DHT22;42426;46.104;19.656;2024-03-02T05:49:24;256.90;2252.80
56123;DHT22;42426;46.104;19.656;2024-03-02T05:51:49;256.90;2252.80
56123;DHT22;42426;46.104;19.656;2024-03-02T05:54:15;256.90;2252.80
56123;DHT22;42426;46.104;19.656;2024-03-02T05:56:41;256.90;2252.80
56123;DHT22;42426;46.104;19.656;2024-03-02T05:59:14;256.90;2252.80
56123;DHT22;42426;46.104;19.656;2024-03-02T06:01:42;281.60;2278.40
56123;DHT22;42426;46.104;19.656;2024-03-02T06:04:09;256.90;2252.80
56123;DHT22;42426;46.104;19.656;2024-03-02T06:06:34;256.90;2252.80
56123;DHT22;42426;46.104;19.656;2024-03-02T06:09:04;256.90;2252.80
56123;DHT22;42426;46.104;19.656;2024-03-02T06:11:36;256.90;2252.80
56123;DHT22;42426;46.104;19.656;2024-03-02T06:14:03;256.90;2252.80
56123;DHT22;42426;46.104;19.656;2024-03-02T06:16:29;256.90;2252.80
56123;DHT22;42426;46.104;19.656;2024-03-02T06:18:55;256.90;2252.80
56123;DHT22;42426;46.104;19.656;2024-03-02T06:21:23;256.90;2252.80
56123;DHT22;42426;46.104;19.656;2024-03-02T06:23:50;256.90;2252.80
56123;DHT22;42426;46.104;19.656;2024-03-02T06:26:16;256.90;2252.80
56123;DHT22;42426;46.104;19.656;2024-03-02T06:28:42;256.90;2252.80
56123;DHT22;42426;46.104;19.656;2024-03-02T06:31:08;256.90;2252.80
56123;DHT22;42426;46.104;19.656;2024-03-02T06:33:34;256.90;2252.80
56123;DHT22;42426;46.104;19.656;2024-03-02T06:36:00;256.90;2252.80
56123;DHT22;42426;46.104;19.656;2024-03-02T06:38:27;256.90;2252.80
56123;DHT22;42426;46.104;19.656;2024-03-02T06:40:53;256.90;2252.80
56123;DHT22;42426;46.104;19.656;2024-03-02T06:43:20;256.90;2252.80
56123;DHT22;42426;46.104;19.656;2024-03-02T06:45:50;256.90;2252.80
56123;DHT22;42426;46.104;19.656;2024-03-02T06:48:17;256.90;2252.80
56123;DHT22;42426;46.104;19.656;2024-03-02T06:50:49;256.90;2252.80
56123;DHT22;42426;46.104;19.656;2024-03-02T06:53:17;281.60;2278.40
56123;DHT22;42426;46.104;19.656;2024-03-02T06:55:43;281.60;2278.40
56123;DHT22;42426;46.104;19.656;2024-03-02T06:58:13;281.60;2278.40
56123;DHT22;42426;46.104;19.656;2024-03-02T07:00:43;281.60;2278.40
56123;DHT22;42426;46.104;19.656;2024-03-02T07:03:09;281.60;2278.40
56123;DHT22;42426;46.104;19.656;2024-03-02T07:05:35;281.60;2278.40
56123;DHT22;42426;46.104;19.656;2024-03-02T07:08:01;281.60;2278.40
56123;DHT22;42426;46.104;19.656;2024-03-02T07:10:28;281.60;2278.40
56123;DHT22;42426;46.104;19.656;2024-03-02T07:12:54;281.60;2278.40
56123;DHT22;42426;46.104;19.656;2024-03-02T07:15:19;281.70;2278.40
56123;DHT22;42426;46.104;19.656;2024-03-02T07:18:03;281.70;2278.40
56123;DHT22;42426;46.104;19.656;2024-03-02T07:20:30;281.70;2278.40
56123;DHT22;42426;46.104;19.656;2024-03-02T07:22:55;281.80;2278.40
56123;DHT22;42426;46.104;19.656;2024-03-02T07:25:22;281.80;2278.40
56123;DHT22;42426;46.104;19.656;2024-03-02T07:27:48;281.80;2278.40
56123;DHT22;42426;46.104;19.656;2024-03-02T07:30:14;281.80;2278.40
56123;DHT22;42426;46.104;19.656;2024-03-02T07:32:42;281.80;2278.40
56123;DHT22;42426;46.104;19.656;2024-03-02T07:35:11;281.80;2278.40
56123;DHT22;42426;46.104;19.656;2024-03-02T07:37:37;281.90;2278.40
56123;DHT22;42426;46.104;19.656;2024-03-02T07:40:03;281.90;2278.40
56123;DHT22;42426;46.104;19.656;2024-03-02T07:42:29;281.90;2278.40
56123;DHT22;42426;46.104;19.656;2024-03-02T07:44:55;282.00;2278.40
56123;DHT22;42426;46.104;19.656;2024-03-02T07:47:22;282.00;2278.40
56123;DHT22;42426;46.104;19.656;2024-03-02T07:49:47;282.00;2278.40
56123;DHT22;42426;46.104;19.656;2024-03-02T07:52:13;282.00;2278.40
56123;DHT22;42426;46.104;19.656;2024-03-02T07:54:39;282.00;2278.40
56123;DHT22;42426;46.104;19.656;2024-03-02T07:57:05;282.00;2278.40
56123;DHT22;42426;46.104;19.656;2024-03-02T07:59:30;282.00;2278.40
56123;DHT22;42426;46.104;19.656;2024-03-02T08:01:56;282.00;2278.40
56123;DHT22;42426;46.104;19.656;2024-03-02T08:04:22;281.90;2278.40
56123;DHT22;42426;46.104;19.656;2024-03-02T08:06:48;281.90;2278.40
56123;DHT22;42426;46.104;19.656;2024-03-02T08:09:14;282.00;2278.40
56123;DHT22;42426;46.104;19.656;2024-03-02T08:11:40;281.90;2278.40
56123;DHT22;42426;46.104;19.656;2024-03-02T08:14:05;281.90;2278.40
56123;DHT22;42426;46.104;19.656;2024-03-02T08:16:31;281.90;2278.40
56123;DHT22;42426;46.104;19.656;2024-03-02T08:18:58;281.90;2278.40
56123;DHT22;42426;46.104;19.656;2024-03-02T08:21:24;281.90;2278.40
56123;DHT22;42426;46.104;19.656;2024-03-02T08:23:50;281.90;2278.40
56123;DHT22;42426;46.104;19.656;2024-03-02T08:26:17;281.90;2278.40
56123;DHT22;42426;46.104;19.656;2024-03-02T08:28:43;282.00;2278.40
56123;DHT22;42426;46.104;19.656;2024-03-02T08:31:09;281.90;2278.40
56123;DHT22;42426;46.104;19.656;2024-03-02T08:33:35;281.90;2278.40
56123;DHT22;42426;46.104;19.656;2024-03-02T08:36:01;282.00;2278.40
56123;DHT22;42426;46.104;19.656;2024-03-02T08:38:28;282.00;2278.40
56123;DHT22;42426;46.104;19.656;2024-03-02T08:40:54;282.00;2278.40
56123;DHT22;42426;46.104;19.656;2024-03-02T08:43:22;282.10;2278.40
56123;DHT22;42426;46.104;19.656;2024-03-02T08:45:48;282.10;2278.40
56123;DHT22;42426;46.104;19.656;2024-03-02T08:48:15;282.10;2278.40
56123;DHT22;42426;46.104;19.656;2024-03-02T08:50:41;282.10;2278.40
56123;DHT22;42426;46.104;19.656;2024-03-02T08:53:06;282.10;2278.40
56123;DHT22;42426;46.104;19.656;2024-03-02T08:55:32;282.10;2278.40
56123;DHT22;42426;46.104;19.656;2024-03-02T08:57:59;282.10;2278.40
56123;DHT22;42426;46.104;19.656;2024-03-02T09:00:26;282.20;2278.40
56123;DHT22;42426;46.104;19.656;2024-03-02T09:02:52;282.30;2278.40
56123;DHT22;42426;46.104;19.656;2024-03-02T09:05:17;282.30;2278.40
56123;DHT22;42426;46.104;19.656;2024-03-02T09:07:43;282.30;2278.40
56123;DHT22;42426;46.104;19.656;2024-03-02T09:10:09;282.30;2278.40
56123;DHT22;42426;46.104;19.656;2024-03-02T09:12:35;282.30;2278.40
56123;DHT22;42426;46.104;19.656;2024-03-02T09:15:02;282.30;2278.40
56123;DHT22;42426;46.104;19.656;2024-03-02T09:17:31;282.40;2278.40
56123;DHT22;42426;46.104;19.656;2024-03-02T09:19:57;282.50;2278.40
56123;DHT22;42426;46.104;19.656;2024-03-02T09:22:23;282.50;2278.40
56123;DHT22;42426;46.104;19.656;2024-03-02T09:24:49;307.20;2304.00
56123;DHT22;42426;46.104;19.656;2024-03-02T09:27:14;307.20;2304.00
56123;DHT22;42426;46.104;19.656;2024-03-02T09:29:40;307.20;2304.00
56123;DHT22;42426;46.104;19.656;2024-03-02T09:32:06;307.40;2304.00
56123;DHT22;42426;46.104;19.656;2024-03-02T09:34:32;307.20;2304.00
56123;DHT22;42426;46.104;19.656;2024-03-02T09:36:59;307.40;2304.00
56123;DHT22;42426;46.104;19.656;2024-03-02T09:39:25;307.40;2304.00
56123;DHT22;42426;46.104;19.656;2024-03-02T09:41:51;307.60;2304.00
56123;DHT22;42426;46.104;19.656;2024-03-02T09:44:18;307.70;2304.00
56123;DHT22;42426;46.104;19.656;2024-03-02T09:46:48;307.60;2304.00
56123;DHT22;42426;46.104;19.656;2024-03-02T09:49:14;307.60;2304.00
56123;DHT22;42426;46.104;19.656;2024-03-02T09:51:40;307.60;2304.00
56123;DHT22;42426;46.104;19.656;2024-03-02T09:54:11;307.70;2304.00
56123;DHT22;42426;46.104;19.656;2024-03-02T09:56:38;307.60;2304.00
56123;DHT22;42426;46.104;19.656;2024-03-02T09:59:06;307.60;2304.00
56123;DHT22;42426;46.104;19.656;2024-03-02T10:01:31;307.70;2304.00
56123;DHT22;42426;46.104;19.656;2024-03-02T10:04:01;307.80;2304.00
56123;DHT22;42426;46.104;19.656;2024-03-02T10:06:28;307.90;2304.00
56123;DHT22;42426;46.104;19.656;2024-03-02T10:08:55;308.10;2304.00
56123;DHT22;42426;46.104;19.656;2024-03-02T10:11:32;332.80;2329.60
56123;DHT22;42426;46.104;19.656;2024-03-02T10:14:12;308.10;2304.00
56123;DHT22;42426;46.104;19.656;2024-03-02T10:16:41;308.10;2304.00
56123;DHT22;42426;46.104;19.656;2024-03-02T10:21:47;333.00;2329.60
56123;DHT22;42426;46.104;19.656;2024-03-02T10:24:13;332.90;2329.60
56123;DHT22;42426;46.104;19.656;2024-03-02T10:26:39;333.00;2329.60
56123;DHT22;42426;46.104;19.656;2024-03-02T10:29:05;333.10;2329.60
56123;DHT22;42426;46.104;19.656;2024-03-02T10:31:31;333.00;2329.60
56123;DHT22;42426;46.104;19.656;2024-03-02T10:34:00;333.10;2329.60
56123;DHT22;42426;46.104;19.656;2024-03-02T10:36:29;333.30;2329.60
56123;DHT22;42426;46.104;19.656;2024-03-02T10:38:56;333.30;2329.60
56123;DHT22;42426;46.104;19.656;2024-03-02T10:46:32;333.60;2329.60
56123;DHT22;42426;46.104;19.656;2024-03-02T10:49:02;333.50;2329.60
56123;DHT22;42426;46.104;19.656;2024-03-02T10:51:31;333.30;2329.60
56123;DHT22;42426;46.104;19.656;2024-03-02T10:53:57;333.30;2329.60
56123;DHT22;42426;46.104;19.656;2024-03-02T10:56:44;333.20;2329.60
56123;DHT22;42426;46.104;19.656;2024-03-02T11:01:57;333.40;2329.60
56123;DHT22;42426;46.104;19.656;2024-03-02T11:04:25;333.20;2329.60
56123;DHT22;42426;46.104;19.656;2024-03-02T11:47:17;358.50;2329.60
56123;DHT22;42426;46.104;19.656;2024-03-02T11:49:50;333.60;2329.60
56123;DHT22;42426;46.104;19.656;2024-03-02T11:52:17;333.70;2329.60
56123;DHT22;42426;46.104;19.656;2024-03-02T11:54:47;333.60;2329.60
56123;DHT22;42426;46.104;19.656;2024-03-02T11:57:16;333.60;2329.60
56123;DHT22;42426;46.104;19.656;2024-03-02T11:59:43;333.70;2329.60
56123;DHT22;42426;46.104;19.656;2024-03-02T12:02:23;333.70;2329.60
56123;DHT22;42426;46.104;19.656;2024-03-02T12:04:50;333.70;2329.60
56123;DHT22;42426;46.104;19.656;2024-03-02T12:07:23;333.70;2329.60
56123;DHT22;42426;46.104;19.656;2024-03-02T12:10:01;358.40;2329.60
56123;DHT22;42426;46.104;19.656;2024-03-02T12:12:28;358.40;2329.60
56123;DHT22;42426;46.104;19.656;2024-03-02T12:14:54;358.40;2329.60
56123;DHT22;42426;46.104;19.656;2024-03-02T12:17:22;358.40;2329.60
56123;DHT22;42426;46.104;19.656;2024-03-02T12:19:47;358.40;2329.60
56123;DHT22;42426;46.104;19.656;2024-03-02T12:22:13;358.40;2329.60
56123;DHT22;42426;46.104;19.656;2024-03-02T12:24:41;358.40;2329.60
56123;DHT22;42426;46.104;19.656;2024-03-02T12:27:11;358.50;2329.60
56123;DHT22;42426;46.104;19.656;2024-03-02T12:29:38;358.70;2329.60
56123;DHT22;42426;46.104;19.656;2024-03-02T12:32:05;358.80;2329.60
56123;DHT22;42426;46.104;19.656;2024-03-02T12:34:31;358.80;2329.60
56123;DHT22;42426;46.104;19.656;2024-03-02T12:36:57;358.90;2329.60
56123;DHT22;42426;46.104;19.656;2024-03-02T12:39:23;359.10;2329.60
56123;DHT22;42426;46.104;19.656;2024-03-02T12:49:15;384.30;2329.60
56123;DHT22;42426;46.104;19.656;2024-03-02T12:51:46;359.30;2329.60
56123;DHT22;42426;46.104;19.656;2024-03-02T12:54:17;384.00;2329.60
56123;DHT22;42426;46.104;19.656;2024-03-02T12:56:43;384.00;2329.60
56123;DHT22;42426;46.104;19.656;2024-03-02T12:59:21;384.10;2329.60
56123;DHT22;42426;46.104;19.656;2024-03-02T13:01:55;359.30;2329.60
56123;DHT22;42426;46.104;19.656;2024-03-02T13:04:30;359.20;2329.60
56123;DHT22;42426;46.104;19.656;2024-03-02T13:06:57;359.20;2329.60
56123;DHT22;42426;46.104;19.656;2024-03-02T13:09:24;359.10;2329.60
56123;DHT22;42426;46.104;19.656;2024-03-02T13:11:50;359.10;2329.60
56123;DHT22;42426;46.104;19.656;2024-03-02T13:14:16;359.20;2329.60
56123;DHT22;42426;46.104;19.656;2024-03-02T13:16:42;359.20;2329.60
56123;DHT22;42426;46.104;19.656;2024-03-02T13:19:11;359.30;2329.60
56123;DHT22;42426;46.104;19.656;2024-03-02T13:21:37;384.00;2329.60
56123;DHT22;42426;46.104;19.656;2024-03-02T13:24:04;384.10;2329.60
56123;DHT22;42426;46.104;19.656;2024-03-02T13:26:30;384.10;2329.60
56123;DHT22;42426;46.104;19.656;2024-03-02T13:28:56;384.10;2329.60
56123;DHT22;42426;46.104;19.656;2024-03-02T13:31:22;384.10;2329.60
56123;DHT22;42426;46.104;19.656;2024-03-02T13:33:48;384.20;2329.60
56123;DHT22;42426;46.104;19.656;2024-03-02T13:41:06;384.80;2329.60
56123;DHT22;42426;46.104;19.656;2024-03-02T13:43:31;384.70;2329.60
56123;DHT22;42426;46.104;19.656;2024-03-02T13:46:01;384.60;2329.60
56123;DHT22;42426;46.104;19.656;2024-03-02T13:48:27;384.60;2329.60
56123;DHT22;42426;46.104;19.656;2024-03-02T13:50:53;384.80;2329.60
56123;DHT22;42426;46.104;19.656;2024-03-02T13:53:19;409.60;2355.20
56123;DHT22;42426;46.104;19.656;2024-03-02T13:55:45;409.60;2355.20
56123;DHT22;42426;46.104;19.656;2024-03-02T13:58:13;384.90;2329.60
56123;DHT22;42426;46.104;19.656;2024-03-02T14:00:39;384.90;2329.60
56123;DHT22;42426;46.104;19.656;2024-03-02T14:03:08;384.90;2329.60
56123;DHT22;42426;46.104;19.656;2024-03-02T14:05:34;409.60;2355.20
56123;DHT22;42426;46.104;19.656;2024-03-02T14:08:00;409.70;2355.20
56123;DHT22;42426;46.104;19.656;2024-03-02T14:10:29;409.70;2355.20
56123;DHT22;42426;46.104;19.656;2024-03-02T14:12:55;409.60;2355.20
56123;DHT22;42426;46.104;19.656;2024-03-02T14:15:22;409.60;2355.20
56123;DHT22;42426;46.104;19.656;2024-03-02T19:47:53;282.40;2278.40
56123;DHT22;42426;46.104;19.656;2024-03-02T19:50:19;282.40;2278.40
56123;DHT22;42426;46.104;19.656;2024-03-02T19:52:45;282.40;2278.40
56123;DHT22;42426;46.104;19.656;2024-03-02T19:55:11;282.40;2278.40
56123;DHT22;42426;46.104;19.656;2024-03-02T19:57:40;282.40;2278.40
56123;DHT22;42426;46.104;19.656;2024-03-02T20:00:11;282.40;2278.40
56123;DHT22;42426;46.104;19.656;2024-03-02T20:02:38;282.30;2278.40
56123;DHT22;42426;46.104;19.656;2024-03-02T20:05:08;282.30;2278.40
56123;DHT22;42426;46.104;19.656;2024-03-02T20:07:37;282.20;2278.40
56123;DHT22;42426;46.104;19.656;2024-03-02T20:10:06;282.20;2278.40
56123;DHT22;42426;46.104;19.656;2024-03-02T20:12:33;282.30;2278.40
56123;DHT22;42426;46.104;19.656;2024-03-02T20:14:59;282.20;2278.40
56123;DHT22;42426;46.104;19.656;2024-03-02T20:17:25;282.10;2278.40
56123;DHT22;42426;46.104;19.656;2024-03-02T20:19:51;282.10;2278.40
56123;DHT22;42426;46.104;19.656;2024-03-02T20:22:17;282.10;2278.40
56123;DHT22;42426;46.104;19.656;2024-03-02T20:24:43;282.10;2278.40
56123;DHT22;42426;46.104;19.656;2024-03-02T20:27:09;282.10;2278.40
56123;DHT22;42426;46.104;19.656;2024-03-02T20:29:35;282.00;2278.40
56123;DHT22;42426;46.104;19.656;2024-03-02T20:32:00;282.00;2278.40
56123;DHT22;42426;46.104;19.656;2024-03-02T20:34:26;281.90;2278.40
56123;DHT22;42426;46.104;19.656;2024-03-02T20:36:52;281.90;2278.40
56123;DHT22;42426;46.104;19.656;2024-03-02T20:39:18;281.90;2278.40
56123;DHT22;42426;46.104;19.656;2024-03-02T20:41:45;281.90;2278.40
56123;DHT22;42426;46.104;19.656;2024-03-02T20:44:11;281.90;2278.40
56123;DHT22;42426;46.104;19.656;2024-03-02T20:46:43;281.80;2278.40
56123;DHT22;42426;46.104;19.656;2024-03-02T20:49:10;281.90;2278.40
56123;DHT22;42426;46.104;19.656;2024-03-02T20:51:36;281.80;2278.40
56123;DHT22;42426;46.104;19.656;2024-03-02T20:54:03;281.80;2278.40
56123;DHT22;42426;46.104;19.656;2024-03-02T20:56:31;281.70;2278.40
56123;DHT22;42426;46.104;19.656;2024-03-02T20:59:04;281.70;2278.40
56123;DHT22;42426;46.104;19.656;2024-03-02T21:01:30;281.70;2278.40
56123;DHT22;42426;46.104;19.656;2024-03-02T21:03:56;281.70;2278.40
56123;DHT22;42426;46.104;19.656;2024-03-02T21:06:22;281.70;2278.40
56123;DHT22;42426;46.104;19.656;2024-03-02T21:08:48;281.60;2278.40
56123;DHT22;42426;46.104;19.656;2024-03-02T21:11:14;281.60;2278.40
56123;DHT22;42426;46.104;19.656;2024-03-02T21:13:41;281.60;2278.40